createdAt,value
2022-08-09T00:01:52.795Z,14.49
2022-08-09T00:04:34.563Z,14.52
2022-08-09T00:07:03.704Z,14.61
2022-08-09T00:09:39.218Z,14.61
2022-08-09T00:12:06.903Z,14.59
2022-08-09T00:14:37.895Z,14.59
2022-08-09T00:17:05.900Z,14.53
2022-08-09T00:19:34.781Z,14.42
2022-08-09T00:22:04.422Z,14.56
2022-08-09T00:24:33.264Z,14.62
2022-08-09T00:27:05.659Z,14.55
2022-08-09T00:30:10.070Z,14.54
2022-08-09T00:32:27.248Z,14.63
2022-08-09T00:34:54.516Z,14.49
2022-08-09T00:37:23.953Z,14.54
2022-08-09T00:40:09.014Z,14.67
2022-08-09T00:44:10.126Z,14.67
2022-08-09T00:45:28.165Z,14.74
2022-08-09T00:47:55.467Z,14.81
2022-08-09T00:50:24.175Z,14.86
2022-08-09T00:52:51.776Z,14.88
2022-08-09T00:56:03.673Z,14.80
2022-08-09T00:58:09.626Z,14.87
2022-08-09T01:00:44.272Z,14.85
2022-08-09T01:03:18.758Z,14.82
2022-08-09T01:05:54.609Z,14.77
2022-08-09T01:08:30.886Z,14.67
2022-08-09T01:11:15.715Z,14.74
2022-08-09T01:13:59.185Z,14.72
2022-08-09T01:16:33.697Z,14.55
2022-08-09T01:19:17.034Z,14.40
2022-08-09T01:22:16.280Z,14.48
2022-08-09T01:24:58.415Z,14.57
2022-08-09T01:27:33.309Z,14.40
2022-08-09T01:30:03.821Z,14.48
2022-08-09T01:32:37.566Z,14.45
2022-08-09T01:35:28.657Z,14.40
2022-08-09T01:38:08.311Z,14.31
2022-08-09T01:40:42.439Z,14.16
2022-08-09T01:43:12.463Z,14.28
2022-08-09T01:45:44.783Z,14.24
2022-08-09T01:48:16.602Z,14.25
2022-08-09T01:50:54.999Z,14.25
2022-08-09T01:53:22.780Z,14.27
2022-08-09T01:55:52.279Z,14.22
2022-08-09T01:58:25.705Z,14.25
2022-08-09T02:00:57.607Z,14.18
2022-08-09T02:03:30.054Z,14.13
2022-08-09T02:06:06.328Z,14.15
2022-08-09T02:08:58.567Z,14.30
2022-08-09T02:11:42.851Z,14.36
2022-08-09T02:14:15.805Z,14.38
2022-08-09T02:17:14.724Z,14.37
2022-08-09T02:19:45.076Z,14.36
2022-08-09T02:22:31.521Z,14.36
2022-08-09T02:25:04.514Z,14.31
2022-08-09T02:27:43.508Z,14.30
2022-08-09T02:30:36.844Z,14.29
2022-08-09T02:33:07.769Z,14.28
2022-08-09T02:36:01.885Z,14.21
2022-08-09T02:38:32.553Z,14.32
2022-08-09T02:41:08.296Z,14.28
2022-08-09T02:43:51.804Z,14.26
2022-08-09T02:46:28.428Z,14.27
2022-08-09T02:49:01.176Z,14.16
2022-08-09T02:51:37.011Z,14.07
2022-08-09T02:54:13.808Z,14.09
2022-08-09T02:56:48.852Z,14.10
2022-08-09T02:59:26.471Z,14.23
2022-08-09T03:02:12.326Z,14.12
2022-08-09T03:04:50.722Z,14.15
2022-08-09T03:07:20.502Z,14.09
2022-08-09T03:09:54.065Z,14.14
2022-08-09T03:12:25.617Z,14.28
2022-08-09T03:14:54.262Z,14.25
2022-08-09T03:17:27.103Z,14.16
2022-08-09T03:20:03.522Z,14.24
2022-08-09T03:22:41.351Z,14.25
2022-08-09T03:25:26.911Z,14.26
2022-08-09T03:27:59.895Z,14.31
2022-08-09T03:30:34.262Z,14.33
2022-08-09T03:33:13.161Z,14.32
2022-08-09T03:36:13.716Z,14.33
2022-08-09T03:38:34.451Z,14.20
2022-08-09T03:41:04.885Z,14.22
2022-08-09T03:43:33.417Z,14.26
2022-08-09T03:46:20.031Z,14.30
2022-08-09T03:48:59.094Z,14.12
2022-08-09T03:51:57.222Z,14.08
2022-08-09T03:54:29.149Z,14.03
2022-08-09T03:57:04.309Z,13.70
2022-08-09T03:59:54.982Z,13.82
2022-08-09T04:02:26.462Z,13.71
2022-08-09T04:04:59.286Z,13.64
2022-08-09T04:07:33.688Z,13.55
2022-08-09T04:10:20.398Z,13.59
2022-08-09T04:12:52.332Z,13.64
2022-08-09T04:15:40.563Z,13.61
2022-08-09T04:18:17.789Z,13.53
2022-08-09T04:20:46.827Z,13.53
2022-08-09T04:23:17.270Z,13.58
2022-08-09T04:25:49.643Z,13.66
2022-08-09T04:28:34.314Z,13.77
2022-08-09T04:31:07.705Z,13.83
2022-08-09T04:33:47.733Z,13.92
2022-08-09T04:36:21.774Z,13.98
2022-08-09T04:38:50.740Z,13.99
2022-08-09T04:41:24.036Z,14.04
2022-08-09T04:44:05.962Z,14.09
2022-08-09T04:46:57.699Z,14.17
2022-08-09T04:49:40.112Z,14.27
2022-08-09T04:52:22.052Z,14.30
2022-08-09T04:54:53.833Z,14.33
2022-08-09T04:57:25.224Z,14.42
2022-08-09T04:59:54.372Z,14.38
2022-08-09T05:02:23.363Z,14.36
2022-08-09T05:04:55.179Z,14.32
2022-08-09T05:07:29.143Z,14.39
2022-08-09T05:10:02.041Z,14.39
2022-08-09T05:12:33.252Z,14.35
2022-08-09T05:15:03.440Z,14.30
2022-08-09T05:18:38.084Z,14.27
2022-08-09T05:20:29.528Z,14.22
2022-08-09T05:23:55.655Z,14.24
2022-08-09T05:25:51.949Z,14.30
2022-08-09T05:28:23.021Z,14.29
2022-08-09T05:30:51.590Z,14.30
2022-08-09T05:33:26.442Z,14.29
2022-08-09T05:36:01.138Z,14.44
2022-08-09T05:38:35.231Z,14.52
2022-08-09T05:41:06.476Z,14.65
2022-08-09T05:43:40.637Z,14.65
2022-08-09T05:46:16.005Z,16.15
2022-08-09T05:48:42.976Z,16.81
2022-08-09T05:51:41.613Z,16.53
2022-08-09T05:53:59.635Z,16.62
2022-08-09T05:56:30.146Z,16.55
2022-08-09T05:58:58.670Z,16.31
2022-08-09T06:01:34.265Z,16.13
2022-08-09T06:04:13.629Z,15.94
2022-08-09T06:06:50.090Z,15.95
2022-08-09T06:09:40.787Z,15.89
2022-08-09T06:12:12.080Z,15.96
2022-08-09T06:14:42.936Z,16.24
2022-08-09T06:17:16.572Z,16.84
2022-08-09T06:19:46.881Z,16.97
2022-08-09T06:22:22.495Z,17.14
2022-08-09T06:25:12.442Z,17.32
2022-08-09T06:27:51.696Z,17.31
2022-08-09T06:30:22.999Z,17.39
2022-08-09T06:33:00.348Z,17.20
2022-08-09T06:35:57.002Z,17.21
2022-08-09T06:38:37.208Z,17.22
2022-08-09T06:41:12.418Z,17.25
2022-08-09T06:43:47.606Z,17.30
2022-08-09T06:46:40.269Z,17.32
2022-08-09T06:50:13.862Z,16.34
2022-08-09T06:52:45.863Z,16.64
2022-08-09T06:55:18.134Z,16.98
2022-08-09T06:58:03.117Z,17.58
2022-08-09T07:00:51.087Z,18.11
2022-08-09T07:03:28.073Z,18.43
2022-08-09T07:06:03.561Z,18.38
2022-08-09T07:08:39.792Z,18.72
2022-08-09T07:11:07.899Z,18.79
2022-08-09T07:13:45.229Z,18.55
2022-08-09T07:16:41.707Z,18.48
2022-08-09T07:19:22.968Z,18.88
2022-08-09T07:21:56.938Z,19.29
2022-08-09T07:24:32.772Z,19.27
2022-08-09T07:27:27.153Z,19.18
2022-08-09T07:30:00.301Z,18.93
2022-08-09T07:32:33.046Z,18.84
2022-08-09T07:35:10.199Z,18.82
2022-08-09T07:37:45.750Z,18.79
2022-08-09T07:40:17.041Z,18.60
2022-08-09T07:42:55.963Z,18.80
2022-08-09T07:45:39.605Z,19.26
2022-08-09T07:48:28.917Z,19.62
2022-08-09T07:51:09.527Z,19.84
2022-08-09T07:54:05.780Z,19.64
2022-08-09T07:56:38.869Z,19.42
2022-08-09T07:59:16.094Z,19.16
2022-08-09T08:02:05.091Z,18.88
2022-08-09T08:04:33.964Z,18.82
2022-08-09T08:07:15.489Z,19.09
2022-08-09T08:10:10.626Z,18.80
2022-08-09T08:12:43.547Z,19.41
2022-08-09T08:15:13.768Z,19.69
2022-08-09T08:17:54.914Z,20.19
2022-08-09T08:20:30.518Z,20.71
2022-08-09T08:23:16.267Z,21.08
2022-08-09T08:25:50.327Z,21.07
2022-08-09T08:28:25.708Z,21.38
2022-08-09T08:31:08.902Z,21.61
2022-08-09T08:33:53.505Z,22.06
2022-08-09T08:36:28.624Z,22.41
2022-08-09T08:38:56.663Z,22.19
2022-08-09T08:41:51.070Z,22.05
2022-08-09T08:44:23.068Z,22.68
2022-08-09T08:47:02.961Z,22.99
2022-08-09T08:49:48.103Z,22.76
2022-08-09T08:52:57.397Z,22.90
2022-08-09T08:55:07.552Z,22.95
2022-08-09T08:57:37.392Z,23.07
2022-08-09T09:00:16.819Z,23.27
2022-08-09T09:02:52.644Z,23.33
2022-08-09T09:05:57.763Z,23.60
2022-08-09T09:08:30.784Z,23.85
2022-08-09T09:11:02.492Z,24.06
2022-08-09T09:13:55.463Z,24.16
2022-08-09T09:16:29.806Z,24.24
2022-08-09T09:22:04.239Z,24.37
2022-08-09T09:24:34.680Z,24.58
2022-08-09T09:27:02.746Z,24.76
2022-08-09T09:30:08.521Z,24.67
2022-08-09T09:32:32.439Z,24.49
2022-08-09T09:35:07.696Z,24.51
2022-08-09T09:37:40.212Z,24.60
2022-08-09T09:40:12.328Z,24.55
2022-08-09T09:42:42.964Z,24.81
2022-08-09T09:45:26.823Z,24.95
2022-08-09T09:48:03.667Z,24.83
2022-08-09T09:50:51.076Z,24.60
2022-08-09T09:53:44.018Z,24.60
2022-08-09T09:56:20.067Z,24.80
2022-08-09T09:59:00.478Z,24.58
2022-08-09T10:01:38.213Z,24.24
2022-08-09T10:04:15.887Z,24.16
2022-08-09T10:06:52.126Z,24.04
2022-08-09T10:09:24.717Z,24.00
2022-08-09T10:12:07.636Z,23.67
2022-08-09T10:17:56.800Z,23.86
2022-08-09T10:20:35.695Z,24.10
2022-08-09T10:23:20.027Z,24.38
2022-08-09T10:26:06.308Z,24.73
2022-08-09T10:28:35.622Z,24.92
2022-08-09T10:34:10.101Z,25.33
2022-08-09T10:36:40.050Z,25.34
2022-08-09T10:39:15.499Z,25.50
2022-08-09T10:41:48.037Z,24.86
2022-08-09T10:44:18.426Z,24.36
2022-08-09T10:48:12.812Z,24.05
2022-08-09T10:50:05.526Z,23.70
2022-08-09T10:52:57.038Z,23.54
2022-08-09T10:55:28.278Z,23.19
2022-08-09T10:58:00.133Z,23.61
2022-08-09T11:00:35.873Z,23.58
2022-08-09T11:03:27.820Z,23.84
2022-08-09T11:06:22.895Z,23.18
2022-08-09T11:09:15.547Z,23.30
2022-08-09T11:12:17.320Z,23.65
2022-08-09T11:14:46.094Z,23.99
2022-08-09T11:17:53.442Z,24.15
2022-08-09T11:20:45.460Z,24.16
2022-08-09T11:23:23.875Z,24.31
2022-08-09T11:25:57.390Z,24.51
2022-08-09T11:28:38.610Z,24.67
2022-08-09T11:31:48.831Z,24.90
2022-08-09T11:34:35.622Z,24.85
2022-08-09T11:37:07.333Z,24.19
2022-08-09T11:40:05.403Z,24.61
2022-08-09T11:42:46.763Z,24.80
2022-08-09T11:45:22.637Z,24.97
2022-08-09T11:47:52.387Z,25.09
2022-08-09T11:51:19.245Z,25.13
2022-08-09T11:54:00.621Z,25.21
2022-08-09T11:56:47.549Z,25.35
2022-08-09T11:59:30.144Z,25.38
2022-08-09T12:02:34.051Z,25.22
2022-08-09T12:04:57.997Z,25.27
2022-08-09T12:07:41.687Z,25.22
2022-08-09T12:10:31.896Z,25.28
2022-08-09T12:13:03.805Z,25.29
2022-08-09T12:15:52.188Z,25.35
2022-08-09T12:18:29.577Z,25.32
2022-08-09T12:20:59.067Z,25.28
2022-08-09T12:23:57.954Z,24.88
2022-08-09T12:26:19.565Z,24.84
2022-08-09T12:29:10.433Z,24.88
2022-08-09T12:32:01.690Z,24.87
2022-08-09T12:34:35.919Z,25.01
2022-08-09T12:37:09.732Z,24.78
2022-08-09T12:40:01.354Z,24.82
2022-08-09T12:42:30.740Z,24.99
2022-08-09T12:45:00.973Z,24.91
2022-08-09T12:47:37.171Z,24.77
2022-08-09T12:50:12.211Z,24.96
2022-08-09T12:52:42.978Z,25.02
2022-08-09T12:56:11.819Z,25.04
2022-08-09T12:58:24.002Z,25.10
2022-08-09T13:01:00.336Z,25.04
2022-08-09T13:03:57.025Z,25.07
2022-08-09T13:06:34.984Z,24.85
2022-08-09T13:09:15.500Z,24.84
2022-08-09T13:11:47.481Z,24.59
2022-08-09T13:14:41.697Z,24.71
2022-08-09T13:17:43.862Z,24.89
2022-08-09T13:20:09.378Z,24.87
2022-08-09T13:23:01.804Z,24.85
2022-08-09T13:25:42.016Z,24.81
2022-08-09T13:28:14.085Z,24.80
2022-08-09T13:32:15.826Z,24.75
2022-08-09T13:33:54.345Z,24.67
2022-08-09T13:36:37.334Z,24.62
2022-08-09T13:41:54.534Z,24.51
2022-08-09T13:42:02.049Z,24.29
2022-08-09T13:44:29.969Z,24.03
2022-08-09T13:47:26.963Z,24.15
2022-08-09T13:49:56.330Z,24.04
2022-08-09T13:52:29.402Z,23.96
2022-08-09T13:55:00.588Z,23.94
2022-08-09T13:57:37.412Z,24.03
2022-08-09T14:00:10.817Z,24.15
2022-08-09T14:02:42.332Z,24.25
2022-08-09T14:05:59.259Z,24.08
2022-08-09T14:08:17.417Z,24.21
2022-08-09T14:10:49.326Z,24.25
2022-08-09T14:13:21.843Z,24.23
2022-08-09T14:16:10.206Z,24.31
2022-08-09T14:18:45.963Z,24.15
2022-08-09T14:21:20.336Z,24.00
2022-08-09T14:23:55.201Z,24.02
2022-08-09T14:26:32.111Z,23.88
2022-08-09T14:29:01.481Z,23.75
2022-08-09T14:31:36.028Z,23.82
2022-08-09T14:34:31.585Z,23.63
2022-08-09T14:37:13.485Z,23.76
2022-08-09T14:39:46.938Z,23.74
2022-08-09T14:42:28.783Z,23.69
2022-08-09T14:46:39.991Z,23.68
2022-08-09T14:47:58.685Z,23.74
2022-08-09T14:50:28.789Z,23.60
2022-08-09T14:52:57.602Z,23.67
2022-08-09T14:55:24.982Z,23.42
2022-08-09T14:57:52.335Z,23.46
2022-08-09T15:00:21.452Z,23.45
2022-08-09T15:02:52.097Z,23.35
2022-08-09T15:05:20.153Z,23.40
2022-08-09T15:07:54.822Z,23.38
2022-08-09T15:10:29.364Z,23.21
2022-08-09T15:13:03.027Z,23.15
2022-08-09T15:15:34.514Z,23.01
2022-08-09T15:18:08.268Z,22.98
2022-08-09T15:21:58.699Z,22.99
2022-08-09T15:24:03.599Z,22.94
2022-08-09T15:26:31.069Z,22.69
2022-08-09T15:29:04.231Z,22.62
2022-08-09T15:31:41.491Z,22.64
2022-08-09T15:34:33.505Z,22.68
2022-08-09T15:37:04.315Z,22.69
2022-08-09T15:39:49.959Z,22.57
2022-08-09T15:42:22.278Z,22.50
2022-08-09T15:44:49.793Z,22.43
2022-08-09T15:47:22.482Z,22.44
2022-08-09T15:50:04.209Z,22.51
2022-08-09T15:52:33.588Z,22.42
2022-08-09T15:55:01.468Z,22.32
2022-08-09T15:57:43.991Z,22.32
2022-08-09T16:00:14.903Z,22.16
2022-08-09T16:02:48.122Z,22.20
2022-08-09T16:05:25.585Z,22.08
2022-08-09T16:07:52.676Z,22.07
2022-08-09T16:10:56.006Z,22.05
2022-08-09T16:13:18.997Z,21.98
2022-08-09T16:16:10.256Z,21.84
2022-08-09T16:18:45.822Z,21.79
2022-08-09T16:21:16.906Z,21.79
2022-08-09T16:23:50.925Z,21.69
2022-08-09T16:26:34.484Z,21.63
2022-08-09T16:29:11.022Z,21.57
2022-08-09T16:32:17.853Z,21.60
2022-08-09T16:34:54.798Z,21.55
2022-08-09T16:37:19.169Z,21.43
2022-08-09T16:39:48.154Z,21.39
2022-08-09T16:42:35.398Z,21.34
2022-08-09T16:45:05.620Z,21.30
2022-08-09T16:48:40.748Z,21.23
2022-08-09T16:50:29.161Z,21.20
2022-08-09T16:53:01.890Z,21.04
2022-08-09T16:55:44.160Z,20.96
2022-08-09T16:58:22.575Z,20.96
2022-08-09T17:00:52.606Z,20.93
2022-08-09T17:03:22.846Z,20.86
2022-08-09T17:06:07.578Z,20.86
2022-08-09T17:08:45.726Z,20.84
2022-08-09T17:11:41.234Z,20.75
2022-08-09T17:14:25.880Z,20.69
2022-08-09T17:17:25.935Z,20.77
2022-08-09T17:20:29.706Z,20.79
2022-08-09T17:22:50.324Z,20.62
2022-08-09T17:25:22.290Z,20.66
2022-08-09T17:27:54.613Z,20.69
2022-08-09T17:30:25.985Z,20.51
2022-08-09T17:33:00.695Z,20.43
2022-08-09T17:38:34.141Z,20.46
2022-08-09T17:41:05.848Z,20.48
2022-08-09T17:43:37.034Z,20.41
2022-08-09T17:46:07.650Z,20.28
2022-08-09T17:48:52.309Z,20.22
2022-08-09T17:51:23.127Z,20.17
2022-08-09T17:53:53.424Z,19.96
2022-08-09T17:56:27.444Z,19.84
2022-08-09T17:58:58.562Z,19.85
2022-08-09T18:02:03.314Z,19.63
2022-08-09T18:04:15.616Z,19.46
2022-08-09T18:06:49.760Z,19.33
2022-08-09T18:09:40.078Z,19.32
2022-08-09T18:12:19.867Z,19.13
2022-08-09T18:14:55.050Z,19.03
2022-08-09T18:18:03.338Z,18.83
2022-08-09T18:21:00.490Z,18.83
2022-08-09T18:24:11.629Z,18.53
2022-08-09T18:26:04.937Z,18.32
2022-08-09T18:30:41.836Z,18.38
2022-08-09T18:31:24.871Z,18.48
2022-08-09T18:34:06.067Z,18.29
2022-08-09T18:36:36.421Z,18.29
2022-08-09T18:39:05.510Z,18.21
2022-08-09T18:41:35.007Z,17.90
2022-08-09T18:44:31.895Z,17.86
2022-08-09T18:47:15.053Z,17.82
2022-08-09T18:49:47.442Z,17.94
2022-08-09T18:52:24.974Z,17.87
2022-08-09T18:55:02.770Z,17.65
2022-08-09T18:57:42.756Z,17.83
2022-08-09T19:00:20.319Z,17.96
2022-08-09T19:02:54.270Z,17.97
2022-08-09T19:05:49.074Z,17.89
2022-08-09T19:08:19.851Z,18.11
2022-08-09T19:10:50.771Z,18.10
2022-08-09T19:13:38.254Z,18.10
2022-08-09T19:16:20.878Z,18.18
2022-08-09T19:18:50.737Z,18.25
2022-08-09T19:21:21.593Z,18.16
2022-08-09T19:24:33.463Z,18.24
2022-08-09T19:26:57.920Z,18.18
2022-08-09T19:29:24.888Z,18.14
2022-08-09T19:31:51.871Z,18.02
2022-08-09T19:34:22.860Z,18.02
2022-08-09T19:36:53.534Z,17.95
2022-08-09T19:39:43.944Z,17.88
2022-08-09T19:42:14.456Z,17.50
2022-08-09T19:44:42.903Z,17.54
2022-08-09T19:47:11.257Z,17.52
2022-08-09T19:50:09.025Z,17.42
2022-08-09T19:52:26.657Z,17.27
2022-08-09T19:54:55.261Z,17.17
2022-08-09T19:57:25.703Z,17.32
2022-08-09T20:00:00.001Z,17.23
2022-08-09T20:04:11.438Z,17.11
2022-08-09T20:05:23.688Z,16.79
2022-08-09T20:08:00.488Z,16.52
2022-08-09T20:10:36.813Z,16.48
2022-08-09T20:13:06.505Z,16.60
2022-08-09T20:16:33.264Z,16.60
2022-08-09T20:18:28.167Z,16.08
2022-08-09T20:20:56.470Z,16.13
2022-08-09T20:23:38.619Z,16.05
2022-08-09T20:26:09.435Z,15.87
2022-08-09T20:28:48.651Z,15.79
2022-08-09T20:31:17.221Z,15.95
2022-08-09T20:33:45.653Z,15.88
2022-08-09T20:36:12.905Z,15.76
2022-08-09T20:41:35.133Z,15.75
2022-08-09T20:44:06.874Z,15.66
2022-08-09T20:46:42.923Z,15.65
2022-08-09T20:49:12.172Z,15.62
2022-08-09T20:51:42.192Z,15.81
2022-08-09T20:54:12.696Z,15.83
2022-08-09T20:56:53.662Z,15.80
2022-08-09T20:59:50.157Z,16.04
2022-08-09T21:02:09.986Z,16.02
2022-08-09T21:05:52.882Z,15.93
2022-08-09T21:07:38.479Z,15.92
2022-08-09T21:10:08.326Z,16.06
2022-08-09T21:12:38.679Z,16.02
2022-08-09T21:15:12.522Z,16.03
2022-08-09T21:18:22.979Z,15.85
2022-08-09T21:20:30.079Z,16.14
2022-08-09T21:22:59.711Z,16.09
2022-08-09T21:25:28.237Z,16.07
2022-08-09T21:28:12.253Z,15.72
2022-08-09T21:30:45.907Z,15.96
2022-08-09T21:33:21.843Z,15.91
2022-08-09T21:35:52.772Z,15.87
2022-08-09T21:38:31.010Z,15.86
2022-08-09T21:41:00.646Z,15.58
2022-08-09T21:43:56.026Z,15.53
2022-08-09T21:46:18.492Z,15.33
2022-08-09T21:48:49.480Z,15.27
2022-08-09T21:51:35.749Z,15.37
2022-08-09T21:54:05.782Z,15.42
2022-08-09T21:56:44.942Z,15.47
2022-08-09T21:59:25.683Z,15.16
2022-08-09T22:02:00.279Z,15.25
2022-08-09T22:04:55.037Z,15.18
2022-08-09T22:07:23.411Z,15.19
2022-08-09T22:10:05.962Z,15.00
2022-08-09T22:12:33.302Z,14.85
2022-08-09T22:15:05.703Z,14.81
2022-08-09T22:17:37.614Z,14.55
2022-08-09T22:20:17.108Z,14.56
2022-08-09T22:22:50.659Z,14.50
2022-08-09T22:26:05.461Z,14.46
2022-08-09T22:28:10.870Z,14.22
2022-08-09T22:30:48.668Z,14.21
2022-08-09T22:33:17.209Z,14.08
2022-08-09T22:36:01.682Z,14.05
2022-08-09T22:38:30.438Z,14.04
2022-08-09T22:41:00.655Z,13.93
2022-08-09T22:44:02.276Z,14.06
2022-08-09T22:48:14.950Z,14.02
2022-08-09T22:49:10.280Z,14.04
2022-08-09T22:51:49.797Z,14.06
2022-08-09T22:54:26.865Z,14.05
2022-08-09T22:56:56.638Z,13.87
2022-08-09T22:59:55.833Z,13.79
2022-08-09T23:02:23.717Z,13.73
2022-08-09T23:04:54.092Z,13.84
2022-08-09T23:07:31.143Z,13.56
2022-08-09T23:10:11.944Z,13.68
2022-08-09T23:12:43.227Z,13.60
2022-08-09T23:15:13.439Z,13.49
2022-08-09T23:17:45.440Z,13.51
2022-08-09T23:20:12.519Z,13.30
2022-08-09T23:22:41.300Z,13.25
2022-08-09T23:25:10.105Z,13.25
2022-08-09T23:28:11.686Z,13.31
2022-08-09T23:30:30.958Z,13.29
2022-08-09T23:33:08.883Z,13.18
2022-08-09T23:36:05.028Z,13.08
2022-08-09T23:38:33.143Z,13.06
2022-08-09T23:41:02.858Z,12.94
2022-08-09T23:43:34.945Z,12.87
2022-08-09T23:46:02.100Z,12.85
2022-08-09T23:48:30.497Z,12.88
2022-08-09T23:50:57.440Z,12.91
2022-08-09T23:53:25.628Z,12.87
2022-08-09T23:56:03.507Z,12.77
2022-08-09T23:58:36.939Z,12.77
